»·PEaware :: UAL116 KSAN-KLAS

UAL116 :: KSAN-KLAS

FLIGHT INFORMATION

Flight Status: Arrived
Operator:
United Airlines
More flights by this operator :: More flights under this callsign
Pilot: Caleb T. (18788)
Aircraft: BOEING 737-800
(B738)
More flights by this aircraft type
Origin: KSAN San Diego Intl-Lindbergh
United States
Destination: KLAS McCarran Intl
United States
More flights between these airports :: More routes between these airports
Route: +PADRZ2 CHKNN SEBBY/N0459F290 YELAH MISEN KEPEC6
File this flight plan on PilotEdge
Remarks: +CW / RMK / SIMBRIEF
Altitude:
(Current/Filed)
30,000ft
Speed:
(Current/Filed)
467kts
Departed: 25-Mar-20 12:08 PM
Arrived: 25-Mar-20 01:01 PM
Distance/Time
Traveled:
225nm/0:53
Distance/Time
To Go:
Arrived

Flight Plot

Page will automatically refresh every two minutes.

Flight plan parsing failed; only flown route is shown


Map Options




Map Legend


Flown Route
Filed Route
Departure Airport
Arrival Airport
Navaid (VOR, NDB)
Fix

Horizontal Profiles

Position Reports

Time Latitude Longitude Heading Altitude Ground
Speed
25-Mar-20 10:57 32.733917 -117.200427 254 22ft 0kts
25-Mar-20 10:58 32.733917 -117.200427 254 22ft 0kts
25-Mar-20 11:01 32.733917 -117.200427 254 22ft 0kts
25-Mar-20 11:02 32.733917 -117.200427 254 22ft 0kts
25-Mar-20 11:03 32.733917 -117.200427 254 22ft 0kts
25-Mar-20 11:04 32.733917 -117.200427 254 22ft 0kts
25-Mar-20 11:05 32.733917 -117.200427 254 22ft 0kts
25-Mar-20 11:06 32.733917 -117.200427 254 22ft 0kts
25-Mar-20 11:07 32.733917 -117.200427 254 22ft 0kts
25-Mar-20 11:08 32.733917 -117.200427 254 22ft 0kts
25-Mar-20 11:09 32.733917 -117.200427 254 22ft 0kts
25-Mar-20 11:10 32.733917 -117.200427 254 22ft 0kts
25-Mar-20 11:12 32.733917 -117.200427 254 22ft 0kts
25-Mar-20 11:13 32.733917 -117.200427 254 22ft 0kts
25-Mar-20 11:14 32.733917 -117.200427 254 22ft 0kts
25-Mar-20 11:15 32.733917 -117.200427 254 22ft 0kts
25-Mar-20 11:16 32.733917 -117.200427 254 22ft 0kts
25-Mar-20 11:17 32.733917 -117.200427 254 22ft 0kts
25-Mar-20 11:18 32.733917 -117.200427 254 22ft 0kts
25-Mar-20 11:19 32.733917 -117.200427 254 22ft 0kts
25-Mar-20 11:20 32.733917 -117.200427 254 22ft 0kts
25-Mar-20 11:21 32.733917 -117.200427 254 22ft 0kts
25-Mar-20 11:22 32.733917 -117.200427 254 22ft 0kts
25-Mar-20 11:23 32.733917 -117.200427 254 22ft 0kts
25-Mar-20 11:24 32.733917 -117.200427 254 22ft 0kts
25-Mar-20 11:25 32.733917 -117.200427 254 22ft 0kts
25-Mar-20 11:26 32.733917 -117.200427 254 22ft 0kts
25-Mar-20 11:27 32.733917 -117.200427 254 22ft 0kts
25-Mar-20 11:28 32.733917 -117.200427 254 22ft 0kts
25-Mar-20 11:29 32.733917 -117.200427 254 22ft 0kts
25-Mar-20 11:30 32.733917 -117.200427 254 22ft 0kts
25-Mar-20 11:31 32.733917 -117.200427 254 22ft 0kts
25-Mar-20 11:31 32.733917 -117.200427 254 22ft 0kts
25-Mar-20 11:33 32.733917 -117.200427 254 22ft 0kts
25-Mar-20 11:33 32.733917 -117.200427 254 22ft 0kts
25-Mar-20 11:35 32.733917 -117.200427 254 22ft 0kts
25-Mar-20 11:35 32.733917 -117.200427 254 22ft 0kts
25-Mar-20 11:36 32.733917 -117.200427 254 22ft 0kts
25-Mar-20 11:37 32.733917 -117.200427 254 22ft 0kts
25-Mar-20 11:38 32.733917 -117.200427 254 22ft 0kts
25-Mar-20 11:39 32.733917 -117.200427 254 22ft 0kts
25-Mar-20 11:40 32.733917 -117.200427 254 22ft 0kts
25-Mar-20 11:41 32.733917 -117.200427 254 22ft 0kts
25-Mar-20 11:42 32.733917 -117.200427 254 22ft 0kts
25-Mar-20 11:43 32.733917 -117.200427 254 22ft 0kts
25-Mar-20 11:44 32.733917 -117.200427 254 22ft 0kts
25-Mar-20 11:45 32.733917 -117.200427 254 22ft 0kts
25-Mar-20 11:46 32.733917 -117.200427 254 22ft 0kts
25-Mar-20 11:47 32.733917 -117.200427 254 22ft 0kts
25-Mar-20 11:48 32.733917 -117.200427 254 22ft 0kts
25-Mar-20 11:49 32.733917 -117.200427 254 22ft 0kts
25-Mar-20 11:50 32.733917 -117.200427 254 22ft 0kts
25-Mar-20 11:51 32.733917 -117.200427 254 22ft 0kts
25-Mar-20 11:52 32.733917 -117.200427 254 22ft 0kts
25-Mar-20 11:53 32.733918 -117.200426 254 22ft 0kts
25-Mar-20 11:54 32.734006 -117.200001 281 22ft 2kts
25-Mar-20 11:55 32.733701 -117.199726 7 22ft 2kts
25-Mar-20 11:56 32.734209 -117.199592 13 22ft 0kts
25-Mar-20 11:57 32.734209 -117.199592 13 22ft 0kts
25-Mar-20 11:58 32.734209 -117.199592 13 22ft 0kts
25-Mar-20 11:59 32.734209 -117.199592 13 22ft 0kts
25-Mar-20 12:00 32.734349 -117.199552 13 22ft 5kts
25-Mar-20 12:01 32.734064 -117.196027 105 23ft 13kts
25-Mar-20 12:02 32.733073 -117.191940 105 24ft 12kts
25-Mar-20 12:03 32.731467 -117.185310 105 23ft 22kts
25-Mar-20 12:04 32.729879 -117.178618 103 22ft 12kts
25-Mar-20 12:05 32.729480 -117.177086 93 24ft 0kts
25-Mar-20 12:06 32.729480 -117.177079 94 24ft 0kts
25-Mar-20 12:07 32.730774 -117.178194 288 25ft 55kts
25-Mar-20 12:08 32.744080 -117.237591 284 2079ft 247kts
25-Mar-20 12:09 32.761778 -117.305908 314 4405ft 214kts
25-Mar-20 12:10 32.817985 -117.344527 309 6417ft 247kts
25-Mar-20 12:11 32.859001 -117.410427 304 9113ft 253kts
25-Mar-20 12:12 32.901662 -117.476574 299 11808ft 251kts
25-Mar-20 12:13 32.944558 -117.543457 296 14504ft 263kts
25-Mar-20 12:14 32.995075 -117.622682 298 14995ft 328kts
25-Mar-20 12:15 33.050414 -117.708692 298 15003ft 326kts
25-Mar-20 12:16 33.115438 -117.782166 308 17073ft 341kts
25-Mar-20 12:17 33.188987 -117.856889 307 19384ft 349kts
25-Mar-20 12:18 33.264460 -117.930799 307 21675ft 351kts
25-Mar-20 12:19 33.340591 -118.005210 306 23151ft 370kts
25-Mar-20 12:20 33.427148 -118.086391 320 23156ft 433kts
25-Mar-20 12:21 33.553382 -118.093468 5 25068ft 484kts
25-Mar-20 12:22 33.670573 -118.012649 35 27069ft 493kts
25-Mar-20 12:23 33.771049 -117.906184 41 29042ft 479kts
25-Mar-20 12:24 33.874239 -117.789131 42 29162ft 538kts
25-Mar-20 12:25 33.987446 -117.658216 42 29167ft 589kts
25-Mar-20 12:26 34.104640 -117.521796 42 29161ft 592kts
25-Mar-20 12:27 34.224794 -117.381658 42 29117ft 594kts
25-Mar-20 12:28 34.343884 -117.242804 42 29092ft 593kts
25-Mar-20 12:29 34.462323 -117.104342 42 29097ft 593kts
25-Mar-20 12:30 34.580962 -116.965396 42 29094ft 592kts
25-Mar-20 12:31 34.699387 -116.826439 42 29088ft 592kts
25-Mar-20 12:32 34.817441 -116.687762 42 29089ft 592kts
25-Mar-20 12:33 34.942981 -116.559241 35 29091ft 590kts
25-Mar-20 12:34 35.071161 -116.434266 36 29095ft 591kts
25-Mar-20 12:35 35.189078 -116.294012 43 27394ft 577kts
25-Mar-20 12:36 35.296413 -116.160509 43 24815ft 522kts
25-Mar-20 12:37 35.393530 -116.038529 43 22420ft 488kts
25-Mar-20 12:38 35.485014 -115.923030 42 20398ft 455kts
25-Mar-20 12:39 35.571839 -115.813014 43 18810ft 443kts
25-Mar-20 12:40 35.653573 -115.708711 43 16615ft 405kts
25-Mar-20 12:41 35.729118 -115.612425 37 14139ft 377kts
25-Mar-20 12:42 35.818085 -115.572494 356 13030ft 324kts
25-Mar-20 12:43 35.908977 -115.567040 355 13009ft 327kts
25-Mar-20 12:44 35.985775 -115.509833 60 13003ft 347kts
25-Mar-20 12:45 36.022424 -115.401030 75 11641ft 332kts
25-Mar-20 12:46 36.025446 -115.297625 98 10199ft 297kts
25-Mar-20 12:47 36.018460 -115.199879 98 8977ft 258kts
25-Mar-20 12:48 36.012605 -115.114737 98 8073ft 248kts
25-Mar-20 12:49 36.007412 -115.032583 97 8004ft 240kts
25-Mar-20 12:50 36.002535 -114.950217 97 7828ft 245kts
25-Mar-20 12:51 35.999206 -114.868447 95 6332ft 233kts
25-Mar-20 12:52 35.997216 -114.791128 95 5524ft 218kts
25-Mar-20 12:53 36.031507 -114.749612 324 5537ft 226kts
25-Mar-20 12:54 36.061915 -114.814770 291 5520ft 218kts
25-Mar-20 12:55 36.073549 -114.885632 266 5520ft 212kts
25-Mar-20 12:56 36.073582 -114.958505 266 4800ft 204kts
25-Mar-20 12:57 36.073664 -115.023415 265 3775ft 176kts
25-Mar-20 12:58 36.073692 -115.080812 265 2865ft 144kts
25-Mar-20 12:59 36.073681 -115.129203 265 2181ft 145kts
25-Mar-20 13:00 36.074408 -115.154564 301 2122ft 20kts
25-Mar-20 13:01 36.074852 -115.155464 303 2122ft 0kts
25-Mar-20 13:02 36.075001 -115.155731 307 2122ft 11kts
25-Mar-20 13:03 36.077784 -115.158266 358 2122ft 0kts
25-Mar-20 13:04 36.077784 -115.158266 358 2122ft 0kts
25-Mar-20 13:05 36.077784 -115.158266 358 2122ft 0kts
25-Mar-20 13:06 36.077784 -115.158266 358 2122ft 0kts
25-Mar-20 13:07 36.077893 -115.158202 40 2122ft 6kts
25-Mar-20 13:08 36.078026 -115.154058 90 2122ft 12kts
25-Mar-20 13:09 36.077910 -115.149208 94 2122ft 17kts
25-Mar-20 13:10 36.080544 -115.148694 32 2122ft 10kts
25-Mar-20 13:11 36.080978 -115.147751 56 2122ft 0kts
25-Mar-20 13:12 36.080978 -115.147752 56 2122ft 0kts

Navigation Log

Ident Type
Flight plan parsing failed, navigation log unavailable